sensor_id;sensor_type;location;lat;lon;timestamp;P1;durP1;ratioP1;P2;durP2;ratioP2
12232;SDS011;6179;51.748;8.728;2023-05-10T00:03:05;11.97;;;8.73;;
12232;SDS011;6179;51.748;8.728;2023-05-10T00:09:06;12.30;;;8.20;;
12232;SDS011;6179;51.748;8.728;2023-05-10T00:15:07;15.83;;;8.63;;
12232;SDS011;6179;51.748;8.728;2023-05-10T00:21:08;28.43;;;8.23;;
12232;SDS011;6179;51.748;8.728;2023-05-10T00:27:09;17.90;;;9.13;;
12232;SDS011;6179;51.748;8.728;2023-05-10T00:33:10;14.97;;;8.53;;
12232;SDS011;6179;51.748;8.728;2023-05-10T00:39:11;13.23;;;8.90;;
12232;SDS011;6179;51.748;8.728;2023-05-10T00:45:12;15.77;;;9.03;;
12232;SDS011;6179;51.748;8.728;2023-05-10T00:51:13;15.53;;;7.60;;
12232;SDS011;6179;51.748;8.728;2023-05-10T00:57:14;17.10;;;9.57;;
12232;SDS011;6179;51.748;8.728;2023-05-10T01:03:14;18.73;;;8.80;;
12232;SDS011;6179;51.748;8.728;2023-05-10T01:09:15;23.83;;;11.77;;
12232;SDS011;6179;51.748;8.728;2023-05-10T01:15:16;21.50;;;10.67;;
12232;SDS011;6179;51.748;8.728;2023-05-10T01:34:13;17.03;;;7.90;;
12232;SDS011;6179;51.748;8.728;2023-05-10T01:40:26;10.40;;;5.97;;
12232;SDS011;6179;51.748;8.728;2023-05-10T01:46:41;9.13;;;5.53;;
12232;SDS011;6179;51.748;8.728;2023-05-10T01:52:42;9.53;;;5.87;;
12232;SDS011;6179;51.748;8.728;2023-05-10T01:58:48;2.37;;;2.07;;
12232;SDS011;6179;51.748;8.728;2023-05-10T02:04:50;5.40;;;2.17;;
12232;SDS011;6179;51.748;8.728;2023-05-10T02:10:54;3.33;;;1.60;;
12232;SDS011;6179;51.748;8.728;2023-05-10T02:16:56;3.27;;;2.77;;
12232;SDS011;6179;51.748;8.728;2023-05-10T02:22:58;8.50;;;3.97;;
12232;SDS011;6179;51.748;8.728;2023-05-10T02:29:01;5.00;;;3.07;;
12232;SDS011;6179;51.748;8.728;2023-05-10T02:35:03;4.30;;;3.10;;
12232;SDS011;6179;51.748;8.728;2023-05-10T02:41:05;3.20;;;2.63;;
12232;SDS011;6179;51.748;8.728;2023-05-10T02:47:08;10.80;;;3.90;;
12232;SDS011;6179;51.748;8.728;2023-05-10T02:53:10;5.53;;;3.57;;
12232;SDS011;6179;51.748;8.728;2023-05-10T02:59:16;9.33;;;3.20;;
12232;SDS011;6179;51.748;8.728;2023-05-10T03:05:17;3.90;;;3.27;;
12232;SDS011;6179;51.748;8.728;2023-05-10T03:11:24;3.50;;;2.87;;
12232;SDS011;6179;51.748;8.728;2023-05-10T03:23:42;3.50;;;2.63;;
12232;SDS011;6179;51.748;8.728;2023-05-10T03:29:45;8.23;;;5.27;;
12232;SDS011;6179;51.748;8.728;2023-05-10T03:35:46;2.73;;;2.30;;
12232;SDS011;6179;51.748;8.728;2023-05-10T03:41:47;6.87;;;2.90;;
12232;SDS011;6179;51.748;8.728;2023-05-10T03:47:47;2.53;;;1.83;;
12232;SDS011;6179;51.748;8.728;2023-05-10T03:53:48;4.13;;;1.87;;
12232;SDS011;6179;51.748;8.728;2023-05-10T03:59:49;4.07;;;2.33;;
12232;SDS011;6179;51.748;8.728;2023-05-10T04:05:57;2.87;;;1.33;;
12232;SDS011;6179;51.748;8.728;2023-05-10T04:11:59;2.47;;;1.90;;
12232;SDS011;6179;51.748;8.728;2023-05-10T04:18:02;2.13;;;1.53;;
12232;SDS011;6179;51.748;8.728;2023-05-10T04:24:02;4.03;;;2.40;;
12232;SDS011;6179;51.748;8.728;2023-05-10T04:30:03;4.90;;;1.93;;
12232;SDS011;6179;51.748;8.728;2023-05-10T04:36:05;4.97;;;2.30;;
12232;SDS011;6179;51.748;8.728;2023-05-10T04:42:06;4.73;;;1.70;;
12232;SDS011;6179;51.748;8.728;2023-05-10T04:48:07;3.70;;;2.73;;
12232;SDS011;6179;51.748;8.728;2023-05-10T04:54:07;1.97;;;1.77;;
12232;SDS011;6179;51.748;8.728;2023-05-10T05:00:08;1.50;;;1.40;;
12232;SDS011;6179;51.748;8.728;2023-05-10T05:06:09;2.30;;;1.37;;
12232;SDS011;6179;51.748;8.728;2023-05-10T05:12:10;5.10;;;0.50;;
12232;SDS011;6179;51.748;8.728;2023-05-10T05:18:13;0.50;;;0.50;;
12232;SDS011;6179;51.748;8.728;2023-05-10T05:24:14;0.60;;;0.60;;
12232;SDS011;6179;51.748;8.728;2023-05-10T05:30:15;8.43;;;1.33;;
12232;SDS011;6179;51.748;8.728;2023-05-10T05:36:15;1.50;;;0.90;;
12232;SDS011;6179;51.748;8.728;2023-05-10T05:42:16;1.83;;;1.73;;
12232;SDS011;6179;51.748;8.728;2023-05-10T05:48:18;3.87;;;1.33;;
12232;SDS011;6179;51.748;8.728;2023-05-10T05:54:19;2.03;;;1.30;;
12232;SDS011;6179;51.748;8.728;2023-05-10T06:00:20;4.13;;;1.10;;
12232;SDS011;6179;51.748;8.728;2023-05-10T06:06:21;1.70;;;1.60;;
12232;SDS011;6179;51.748;8.728;2023-05-10T06:12:21;1.83;;;1.40;;
12232;SDS011;6179;51.748;8.728;2023-05-10T06:18:22;1.80;;;1.07;;
12232;SDS011;6179;51.748;8.728;2023-05-10T06:24:23;3.00;;;1.07;;
12232;SDS011;6179;51.748;8.728;2023-05-10T06:30:24;1.13;;;0.80;;
12232;SDS011;6179;51.748;8.728;2023-05-10T06:36:28;2.03;;;1.17;;
12232;SDS011;6179;51.748;8.728;2023-05-10T06:42:29;8.40;;;0.73;;
12232;SDS011;6179;51.748;8.728;2023-05-10T06:48:29;1.13;;;0.80;;
12232;SDS011;6179;51.748;8.728;2023-05-10T06:54:30;3.50;;;0.80;;
12232;SDS011;6179;51.748;8.728;2023-05-10T07:00:31;1.70;;;1.30;;
12232;SDS011;6179;51.748;8.728;2023-05-10T07:06:31;3.27;;;1.67;;
12232;SDS011;6179;51.748;8.728;2023-05-10T07:12:33;2.23;;;1.30;;
12232;SDS011;6179;51.748;8.728;2023-05-10T07:18:35;2.60;;;2.10;;
12232;SDS011;6179;51.748;8.728;2023-05-10T07:24:36;2.90;;;1.97;;
12232;SDS011;6179;51.748;8.728;2023-05-10T07:30:36;1.93;;;1.30;;
12232;SDS011;6179;51.748;8.728;2023-05-10T07:36:37;1.93;;;1.63;;
12232;SDS011;6179;51.748;8.728;2023-05-10T07:42:37;3.20;;;1.70;;
12232;SDS011;6179;51.748;8.728;2023-05-10T07:48:38;3.00;;;2.03;;
12232;SDS011;6179;51.748;8.728;2023-05-10T07:54:39;2.67;;;1.67;;
12232;SDS011;6179;51.748;8.728;2023-05-10T08:00:39;11.63;;;3.53;;
12232;SDS011;6179;51.748;8.728;2023-05-10T08:06:41;3.23;;;2.30;;
12232;SDS011;6179;51.748;8.728;2023-05-10T08:12:41;9.33;;;3.10;;
12232;SDS011;6179;51.748;8.728;2023-05-10T08:18:43;4.50;;;2.40;;
12232;SDS011;6179;51.748;8.728;2023-05-10T08:24:45;6.57;;;2.30;;
12232;SDS011;6179;51.748;8.728;2023-05-10T08:30:45;5.00;;;3.10;;
12232;SDS011;6179;51.748;8.728;2023-05-10T08:36:46;17.97;;;5.63;;
12232;SDS011;6179;51.748;8.728;2023-05-10T08:43:03;13.93;;;6.10;;
12232;SDS011;6179;51.748;8.728;2023-05-10T08:49:06;17.20;;;7.07;;
12232;SDS011;6179;51.748;8.728;2023-05-10T08:55:09;15.97;;;8.70;;
12232;SDS011;6179;51.748;8.728;2023-05-10T09:01:10;16.77;;;6.23;;
12232;SDS011;6179;51.748;8.728;2023-05-10T13:59:58;8.67;;;3.40;;
12232;SDS011;6179;51.748;8.728;2023-05-10T14:05:59;9.83;;;3.53;;
12232;SDS011;6179;51.748;8.728;2023-05-10T14:12:00;6.97;;;4.57;;
12232;SDS011;6179;51.748;8.728;2023-05-10T14:18:00;40.33;;;8.13;;
12232;SDS011;6179;51.748;8.728;2023-05-10T14:24:01;14.33;;;5.30;;
12232;SDS011;6179;51.748;8.728;2023-05-10T14:30:02;18.17;;;7.60;;
12232;SDS011;6179;51.748;8.728;2023-05-10T14:36:03;11.83;;;5.30;;
12232;SDS011;6179;51.748;8.728;2023-05-10T14:42:04;9.00;;;4.20;;
12232;SDS011;6179;51.748;8.728;2023-05-10T14:48:04;5.23;;;3.10;;
12232;SDS011;6179;51.748;8.728;2023-05-10T14:54:05;14.03;;;4.83;;
12232;SDS011;6179;51.748;8.728;2023-05-10T15:00:06;9.27;;;4.90;;
12232;SDS011;6179;51.748;8.728;2023-05-10T15:06:08;14.23;;;6.63;;
12232;SDS011;6179;51.748;8.728;2023-05-10T15:12:08;16.57;;;7.27;;
12232;SDS011;6179;51.748;8.728;2023-05-10T15:18:09;14.00;;;6.47;;
12232;SDS011;6179;51.748;8.728;2023-05-10T15:24:10;12.77;;;6.87;;
12232;SDS011;6179;51.748;8.728;2023-05-10T15:30:10;22.77;;;7.47;;
12232;SDS011;6179;51.748;8.728;2023-05-10T15:36:12;14.27;;;5.73;;
12232;SDS011;6179;51.748;8.728;2023-05-10T15:42:12;13.07;;;5.97;;
12232;SDS011;6179;51.748;8.728;2023-05-10T15:48:13;12.03;;;5.40;;
12232;SDS011;6179;51.748;8.728;2023-05-10T15:54:14;13.00;;;4.70;;
12232;SDS011;6179;51.748;8.728;2023-05-10T16:00:16;10.70;;;4.43;;
12232;SDS011;6179;51.748;8.728;2023-05-10T16:06:16;7.53;;;4.00;;
12232;SDS011;6179;51.748;8.728;2023-05-10T16:12:17;7.93;;;5.27;;
12232;SDS011;6179;51.748;8.728;2023-05-10T16:18:18;12.03;;;6.27;;
12232;SDS011;6179;51.748;8.728;2023-05-10T16:24:18;12.50;;;6.70;;
12232;SDS011;6179;51.748;8.728;2023-05-10T16:30:19;10.37;;;5.23;;
12232;SDS011;6179;51.748;8.728;2023-05-10T16:36:20;18.87;;;6.07;;
12232;SDS011;6179;51.748;8.728;2023-05-10T16:42:21;17.00;;;7.60;;
12232;SDS011;6179;51.748;8.728;2023-05-10T16:48:23;13.50;;;5.70;;
12232;SDS011;6179;51.748;8.728;2023-05-10T16:54:23;12.87;;;7.13;;
12232;SDS011;6179;51.748;8.728;2023-05-10T17:00:25;11.00;;;6.73;;
12232;SDS011;6179;51.748;8.728;2023-05-10T17:06:26;8.37;;;5.43;;
12232;SDS011;6179;51.748;8.728;2023-05-10T17:12:26;16.77;;;6.37;;
12232;SDS011;6179;51.748;8.728;2023-05-10T17:18:27;12.80;;;6.23;;
12232;SDS011;6179;51.748;8.728;2023-05-10T17:24:28;11.13;;;5.60;;
12232;SDS011;6179;51.748;8.728;2023-05-10T17:30:30;14.30;;;4.80;;
12232;SDS011;6179;51.748;8.728;2023-05-10T17:36:31;14.50;;;4.60;;
12232;SDS011;6179;51.748;8.728;2023-05-10T17:42:32;8.50;;;5.00;;
12232;SDS011;6179;51.748;8.728;2023-05-10T17:48:33;9.90;;;5.23;;
12232;SDS011;6179;51.748;8.728;2023-05-10T17:54:35;4.63;;;4.20;;
12232;SDS011;6179;51.748;8.728;2023-05-10T18:00:36;10.67;;;4.17;;
12232;SDS011;6179;51.748;8.728;2023-05-10T18:06:37;8.63;;;5.57;;
12232;SDS011;6179;51.748;8.728;2023-05-10T18:12:38;5.90;;;4.87;;
12232;SDS011;6179;51.748;8.728;2023-05-10T18:18:38;7.07;;;4.87;;
12232;SDS011;6179;51.748;8.728;2023-05-10T18:24:39;5.47;;;3.43;;
12232;SDS011;6179;51.748;8.728;2023-05-10T18:30:40;7.10;;;3.60;;
12232;SDS011;6179;51.748;8.728;2023-05-10T18:36:40;14.17;;;4.33;;
12232;SDS011;6179;51.748;8.728;2023-05-10T18:42:42;12.17;;;5.10;;
12232;SDS011;6179;51.748;8.728;2023-05-10T18:48:45;8.90;;;4.03;;
12232;SDS011;6179;51.748;8.728;2023-05-10T18:54:46;12.67;;;5.10;;
12232;SDS011;6179;51.748;8.728;2023-05-10T19:00:48;10.10;;;4.90;;
12232;SDS011;6179;51.748;8.728;2023-05-10T19:06:48;9.10;;;5.77;;
12232;SDS011;6179;51.748;8.728;2023-05-10T19:12:49;10.77;;;6.47;;
12232;SDS011;6179;51.748;8.728;2023-05-10T19:18:50;9.57;;;6.43;;
12232;SDS011;6179;51.748;8.728;2023-05-10T19:24:50;11.70;;;6.57;;
12232;SDS011;6179;51.748;8.728;2023-05-10T19:30:51;21.23;;;7.63;;
12232;SDS011;6179;51.748;8.728;2023-05-10T19:36:53;6.03;;;5.30;;
12232;SDS011;6179;51.748;8.728;2023-05-10T19:42:53;10.87;;;6.40;;
12232;SDS011;6179;51.748;8.728;2023-05-10T19:48:55;13.40;;;5.13;;
12232;SDS011;6179;51.748;8.728;2023-05-10T19:54:56;12.07;;;6.77;;
12232;SDS011;6179;51.748;8.728;2023-05-10T20:00:57;36.43;;;6.40;;
12232;SDS011;6179;51.748;8.728;2023-05-10T20:06:58;13.70;;;7.10;;
12232;SDS011;6179;51.748;8.728;2023-05-10T20:12:58;10.73;;;6.20;;
12232;SDS011;6179;51.748;8.728;2023-05-10T20:18:59;13.20;;;7.70;;
12232;SDS011;6179;51.748;8.728;2023-05-10T20:25:00;14.17;;;8.50;;
12232;SDS011;6179;51.748;8.728;2023-05-10T20:31:01;10.63;;;7.37;;
12232;SDS011;6179;51.748;8.728;2023-05-10T20:37:02;17.57;;;9.10;;
12232;SDS011;6179;51.748;8.728;2023-05-10T20:43:03;19.60;;;9.63;;
12232;SDS011;6179;51.748;8.728;2023-05-10T20:49:05;14.40;;;8.40;;
12232;SDS011;6179;51.748;8.728;2023-05-10T20:55:07;16.93;;;9.40;;
12232;SDS011;6179;51.748;8.728;2023-05-10T21:01:08;20.87;;;10.60;;
12232;SDS011;6179;51.748;8.728;2023-05-10T21:07:09;17.30;;;9.27;;
12232;SDS011;6179;51.748;8.728;2023-05-10T21:13:09;19.10;;;10.30;;
12232;SDS011;6179;51.748;8.728;2023-05-10T21:19:10;21.30;;;10.13;;
12232;SDS011;6179;51.748;8.728;2023-05-10T21:25:10;24.63;;;9.03;;
12232;SDS011;6179;51.748;8.728;2023-05-10T21:31:11;15.37;;;8.87;;
12232;SDS011;6179;51.748;8.728;2023-05-10T21:37:14;21.97;;;10.60;;
12232;SDS011;6179;51.748;8.728;2023-05-10T21:43:16;15.07;;;9.37;;
12232;SDS011;6179;51.748;8.728;2023-05-10T21:49:16;17.73;;;11.00;;
12232;SDS011;6179;51.748;8.728;2023-05-10T21:55:17;16.43;;;9.37;;
12232;SDS011;6179;51.748;8.728;2023-05-10T22:01:18;21.70;;;9.33;;
12232;SDS011;6179;51.748;8.728;2023-05-10T22:07:19;17.00;;;8.87;;
12232;SDS011;6179;51.748;8.728;2023-05-10T22:13:19;22.60;;;10.33;;
12232;SDS011;6179;51.748;8.728;2023-05-10T22:19:20;14.93;;;8.37;;
12232;SDS011;6179;51.748;8.728;2023-05-10T22:25:21;20.03;;;9.03;;
12232;SDS011;6179;51.748;8.728;2023-05-10T22:31:21;31.87;;;13.03;;
12232;SDS011;6179;51.748;8.728;2023-05-10T22:37:22;13.13;;;7.93;;
12232;SDS011;6179;51.748;8.728;2023-05-10T22:43:23;26.63;;;10.77;;
12232;SDS011;6179;51.748;8.728;2023-05-10T22:49:23;12.97;;;7.13;;
12232;SDS011;6179;51.748;8.728;2023-05-10T22:55:24;18.73;;;9.53;;
12232;SDS011;6179;51.748;8.728;2023-05-10T23:01:25;19.93;;;8.80;;
12232;SDS011;6179;51.748;8.728;2023-05-10T23:07:25;17.60;;;8.10;;
12232;SDS011;6179;51.748;8.728;2023-05-10T23:13:26;14.67;;;6.90;;
12232;SDS011;6179;51.748;8.728;2023-05-10T23:19:27;16.30;;;6.70;;
12232;SDS011;6179;51.748;8.728;2023-05-10T23:25:27;7.30;;;4.33;;
12232;SDS011;6179;51.748;8.728;2023-05-10T23:31:28;12.03;;;5.73;;
12232;SDS011;6179;51.748;8.728;2023-05-10T23:37:29;13.30;;;6.07;;
12232;SDS011;6179;51.748;8.728;2023-05-10T23:43:30;13.13;;;5.30;;
12232;SDS011;6179;51.748;8.728;2023-05-10T23:49:30;7.30;;;4.17;;
12232;SDS011;6179;51.748;8.728;2023-05-10T23:55:31;12.00;;;6.83;;
